• Join FlightAware (Why Join?)
  • Login
  • US Flag 
10:05AM EDT


 

Airport Tracker/Info


-or-


 

Live Flight TrackerFlight Track Log ✈ DAL268 ✈ 28-Aug-2013 ✈ KJFK - LLBG / TLV

Flight Track Log - Related Links

Times and Time Zones

All times are in EDT time to prevent confusion due to time zone crossing. See the DAL268 flight status page for this flight to view local times or setup timezone preferences in your user account.

Time Position Orientation Groundspeed Altitude Reporting Facility
EDT Latitude Longitude Course Direction KTS MPH feet Rate Location/Type
12:01AM 40.6320 -73.7790 North  Level FlightAware
12:07AM 40.8098 -73.6069 37° Northeast  Level FlightAware Approximate
12:08AM 40.9241 -73.5092 37° Northeast  Level FlightAware Approximate
12:09AM 41.0363 -73.4126 30° Northeast  Level FlightAware Approximate
12:10AM 41.1583 -73.3251 37° Northeast  Level FlightAware Approximate
12:11AM 41.2742 -73.2235 29° Northeast  Level FlightAware Approximate
12:12AM 41.3837 -73.1152 72° East  Level FlightAware Approximate
12:20AM 40.6270 -73.7830 270° West  Level FlightAware
12:25AM 40.8111 -73.6056 37° Northeast  Level FlightAware Approximate
12:34AM 40.8971 -73.5363 37° Northeast  Level FlightAware Approximate
12:35AM 41.0032 -73.4383 30° Northeast  Level FlightAware Approximate
12:42AM 40.6180 -73.7850 37° Northeast 88 101  Level FlightAware
12:43AM 40.6270 -73.7780 31° Northeast 150 173 600 Level FlightAware
12:43AM 40.6420 -73.7660 31° Northeast 177 204 400 1,380 Climbing FlightAware
12:43AM 40.6540 -73.7530 39° Northeast 177 204 1,000 1,680 Climbing FlightAware
12:43AM 40.6580 -73.7450 57° Northeast 179 206 1,200 1,500 Climbing FlightAware
12:44AM 40.6610 -73.7360 66° East 183 211 1,400 1,020 Climbing FlightAware
12:44AM 40.6630 -73.7200 81° East 197 227 1,600 960 Climbing FlightAware
12:44AM 40.6670 -73.6850 81° East 227 261 2,100 960 Climbing FlightAware
12:44AM 40.6680 -73.6800 75° East 230 265 2,100 480 Level FlightAware
12:44AM 40.6730 -73.6710 54° Northeast 238 274 2,200 660 Climbing FlightAware
12:45AM 40.6870 -73.6510 47° Northeast 256 295 2,400 1,140 Climbing FlightAware
12:45AM 40.7090 -73.6240 43° Northeast 270 311 3,000 1,380 Climbing FlightAware
12:45AM 40.7280 -73.5970 47° Northeast 283 326 3,500 1,800 Climbing FlightAware
12:46AM 40.7450 -73.5740 46° Northeast 284 327 4,200 2,400 Climbing FlightAware
12:46AM 40.7620 -73.5520 44° Northeast 284 327 5,000 2,340 Climbing FlightAware
12:46AM 40.7800 -73.5280 45° Northeast 290 334 5,700 2,100 Climbing FlightAware
12:47AM 40.8010 -73.5050 40° Northeast 293 337 6,400 2,040 Climbing FlightAware
12:47AM 40.8160 -73.4950 27° Northeast 297 342 6,800 2,160 Climbing FlightAware
12:47AM 40.8450 -73.4750 28° Northeast 299 344 7,700 2,220 Climbing FlightAware
12:48AM 40.8680 -73.4600 26° Northeast 299 344 8,400 2,040 Climbing FlightAware
12:48AM 40.8950 -73.4390 30° Northeast 305 351 9,100 1,860 Climbing FlightAware
12:48AM 40.9190 -73.4120 40° Northeast 309 356 9,800 1,620 Climbing FlightAware
12:49AM 40.9550 -73.3700 41° Northeast 325 374 10,600 1,320 Climbing FlightAware
12:50AM 40.9990 -73.3190 41° Northeast 351 404 11,300 1,080 Climbing FlightAware
12:50AM 41.0460 -73.2620 42° Northeast 377 434 12,000 1,020 Climbing FlightAware
12:51AM 41.0880 -73.2120 42° Northeast 399 459 12,500 1,560 Climbing FlightAware
12:51AM 41.1370 -73.1550 41° Northeast 405 466 13,800 1,800 Climbing FlightAware
12:52AM 41.1860 -73.0960 42° Northeast 419 482 14,600 1,860 Climbing FlightAware
12:52AM 41.2360 -73.0350 43° Northeast 423 487 16,000 1,860 Climbing FlightAware
12:53AM 41.2910 -72.9680 42° Northeast 435 501 16,900 1,560 Climbing FlightAware
12:54AM 41.3450 -72.9010 43° Northeast 447 514 17,900 1,500 Climbing FlightAware
12:54AM 41.3890 -72.8390 47° Northeast 457 526 18,600 1,440 Climbing FlightAware
12:55AM 41.4390 -72.7680 47° Northeast 461 531 19,600 1,800 Climbing FlightAware
12:55AM 41.4910 -72.6960 46° Northeast 463 533 20,700 1,800 Climbing FlightAware
12:56AM 41.5460 -72.6190 46° Northeast 468 539 21,700 1,560 Climbing FlightAware
12:57AM 41.6010 -72.5420 46° Northeast 472 543 22,600 900 Climbing FlightAware
12:57AM 41.6560 -72.4660 46° Northeast 474 545 22,900 1,200 Climbing FlightAware
12:57AM 41.6390 -72.4900 227° Southwest 412 474 23,600 2,580 Climbing FlightAware
12:58AM 41.7050 -72.3950 47° Northeast 481 554 24,200 1,800 Climbing FlightAware
12:58AM 41.7530 -72.3280 46° Northeast 476 548 25,300 1,560 Climbing FlightAware
12:59AM 41.8110 -72.2440 47° Northeast 484 557 26,000 960 Climbing FlightAware
12:59AM 41.8580 -72.1780 46° Northeast 493 567 26,400 840 Climbing FlightAware
01:00AM 41.9220 -72.0860 47° Northeast 500 575 27,000 840 Climbing FlightAware
01:01AM 41.9760 -72.0080 47° Northeast 508 585 27,500 720 Climbing FlightAware
01:01AM 42.0230 -71.9390 47° Northeast 517 595 27,900 900 Climbing FlightAware
01:02AM 42.0890 -71.8450 47° Northeast 517 595 28,600 1,260 Climbing FlightAware
01:02AM 42.1450 -71.7620 48° Northeast 515 593 29,400 1,260 Climbing FlightAware
01:03AM 42.2050 -71.6760 47° Northeast 514 592 30,100 1,200 Climbing FlightAware
01:04AM 42.2540 -71.6020 48° Northeast 512 589 30,800 720 Climbing FlightAware
01:04AM 42.3160 -71.5110 47° Northeast 511 588 31,000 180 Climbing FlightAware
01:05AM 42.3640 -71.4410 47° Northeast 510 587 31,000  Level FlightAware
01:05AM 42.4270 -71.3470 48° Northeast 509 586 31,000  Level FlightAware
01:06AM 42.4920 -71.2520 47° Northeast 505 581 31,000  Level FlightAware
01:07AM 42.5490 -71.1670 48° Northeast 505 581 31,000  Level FlightAware
01:07AM 42.6190 -71.0630 48° Northeast 506 582 31,000  Level FlightAware
01:08AM 42.6770 -70.9770 47° Northeast 506 582 31,000  Level FlightAware
01:09AM 42.7320 -70.8940 48° Northeast 507 583 31,000  Level FlightAware
01:09AM 42.7950 -70.8000 48° Northeast 507 583 31,000  Level FlightAware
01:10AM 42.8500 -70.7160 48° Northeast 506 582 31,000  Level FlightAware
01:10AM 42.9070 -70.6300 48° Northeast 511 588 31,000  Level FlightAware
01:11AM 42.9630 -70.5460 48° Northeast 512 589 31,000  Level FlightAware
01:11AM 43.0180 -70.4610 48° Northeast 514 592 31,000  Level FlightAware
01:12AM 43.0730 -70.3780 48° Northeast 515 593 31,000  Level FlightAware
01:13AM 43.1280 -70.2920 49° Northeast 512 589 31,000  Level FlightAware
01:13AM 43.1830 -70.2080 48° Northeast 512 589 31,000  Level FlightAware
01:14AM 43.2320 -70.1320 48° Northeast 516 594 31,000  Level FlightAware
01:14AM 43.2940 -70.0350 49° Northeast 512 589 31,000  Level FlightAware
01:15AM 43.3770 -69.9080 48° Northeast 511 588 31,000  Level FlightAware
01:16AM 43.4290 -69.8260 49° Northeast 517 595 31,000  Level FlightAware
01:16AM 43.4880 -69.7350 48° Northeast 516 594 31,000  Level FlightAware
01:17AM 43.5450 -69.6460 49° Northeast 515 593 31,000  Level FlightAware
01:18AM 43.6200 -69.5300 48° Northeast 516 594 31,000  Level FlightAware
01:19AM 43.6810 -69.4320 49° Northeast 518 596 31,000  Level FlightAware
01:19AM 43.7380 -69.3430 48° Northeast 521 600 31,000  Level FlightAware
01:20AM 43.7940 -69.2540 49° Northeast 521 600 31,000  Level FlightAware
01:20AM 43.8390 -69.1830 49° Northeast 517 595 31,000  Level FlightAware
01:21AM 43.9020 -69.0820 49° Northeast 523 602 31,000  Level FlightAware
01:21AM 43.9520 -69.0020 49° Northeast 523 602 31,000  Level FlightAware
01:22AM 44.0010 -68.9240 49° Northeast 523 602 31,000  Level FlightAware
01:23AM 44.0590 -68.8320 49° Northeast 518 596 31,000  Level FlightAware
01:23AM 44.1390 -68.7040 49° Northeast 524 603 31,000  Level FlightAware
01:24AM 44.2000 -68.6060 49° Northeast 525 604 31,000  Level FlightAware
01:24AM 44.2520 -68.5210 49° Northeast 525 604 31,000  Level FlightAware
01:25AM 44.3040 -68.4370 49° Northeast 525 604 31,000  Level FlightAware
01:26AM 44.3640 -68.3400 49° Northeast 526 605 31,000  Level FlightAware
01:26AM 44.4140 -68.2560 50° Northeast 525 604 31,000  Level FlightAware
01:27AM 44.4790 -68.1510 49° Northeast 526 605 31,000  Level FlightAware
01:27AM 44.5350 -68.0590 49° Northeast 527 606 31,000  Level FlightAware
01:28AM 44.5860 -67.9740 50° Northeast 528 608 31,000  Level FlightAware
01:29AM 44.6400 -67.8840 50° Northeast 528 608 31,000  Level FlightAware
01:29AM 44.6950 -67.7920 50° Northeast 529 609 31,000 60 Level FlightAware
01:30AM 44.7460 -67.7070 50° Northeast 531 611 31,100  Climbing FlightAware
01:30AM 44.8020 -67.6140 50° Northeast 534 615 31,000 -120 Descending FlightAware
01:31AM 44.8610 -67.5150 50° Northeast 530 610 31,000  Level FlightAware
01:31AM 44.9170 -67.4200 50° Northeast 531 611 31,000  Level FlightAware
01:32AM 44.9740 -67.3250 50° Northeast 530 610 31,000  Level FlightAware
01:33AM 45.0220 -67.2440 50° Northeast 534 615 31,000  Level FlightAware
01:33AM 45.0850 -67.1380 50° Northeast 532 612 31,000  Level FlightAware
01:34AM 45.1340 -67.0540 50° Northeast 532 612 31,000 480 Level FlightAware
01:34AM 45.1950 -66.9500 50° Northeast 535 616 31,600 840 Climbing FlightAware
01:35AM 45.2430 -66.8660 51° Northeast 537 618 32,000 840 Climbing FlightAware
01:36AM 45.3070 -66.7570 50° Northeast 532 612 32,600 780 Climbing FlightAware
01:36AM 45.3620 -66.6630 50° Northeast 537 618 33,000 300 Climbing FlightAware
01:37AM 45.4240 -66.5560 50° Northeast 537 618 33,000  Level FlightAware
01:37AM 45.4810 -66.4590 50° Northeast 535 616 33,000  Level FlightAware
01:38AM 45.5340 -66.3660 51° Northeast 535 616 33,000  Level FlightAware
01:39AM 45.5900 -66.2680 51° Northeast 536 617 33,000  Level FlightAware
01:39AM 45.6430 -66.1750 51° Northeast 537 618 33,000  Level FlightAware
01:40AM 45.7000 -66.0750 51° Northeast 537 618 33,000  Level FlightAware
01:40AM 45.7540 -65.9800 51° Northeast 539 620 33,000  Level FlightAware
01:41AM 45.8100 -65.8800 51° Northeast 541 623 33,000  Level FlightAware
01:41AM 45.8630 -65.7860 51° Northeast 543 625 33,000  Level FlightAware
01:42AM 45.9200 -65.6850 51° Northeast 543 625 33,000  Level FlightAware
01:43AM 45.9700 -65.5960 51° Northeast 543 625 33,000  Level FlightAware
01:44AM 46.0590 -65.4350 51° Northeast 546 628 33,000  Level FlightAware
01:44AM 46.1090 -65.3460 51° Northeast 546 628 33,000  Level FlightAware
01:45AM 46.1590 -65.2570 51° Northeast 546 628 33,000  Level FlightAware
01:45AM 46.2080 -65.1700 51° Northeast 546 628 33,000  Level FlightAware
01:46AM 46.2560 -65.0830 51° Northeast 546 628 33,000  Level FlightAware
01:47AM 46.3050 -64.9960 51° Northeast 546 628 33,000  Level FlightAware
01:47AM 46.3530 -64.9090 51° Northeast 546 628 33,000  Level FlightAware
01:48AM 46.4030 -64.8200 51° Northeast 546 628 33,000  Level FlightAware
01:48AM 46.4530 -64.7300 51° Northeast 546 628 33,000  Level FlightAware
01:49AM 46.5020 -64.6430 51° Northeast 546 628 33,000  Level FlightAware
01:50AM 46.5510 -64.5560 51° Northeast 546 628 33,000  Level FlightAware
01:50AM 46.5980 -64.4710 51° Northeast 546 628 33,000  Level FlightAware
01:51AM 46.6470 -64.3830 51° Northeast 546 628 33,000  Level FlightAware
01:51AM 46.6970 -64.2930 51° Northeast 546 628 33,000  Level FlightAware
01:52AM 46.7450 -64.2060 51° Northeast 546 628 33,000  Level FlightAware
01:53AM 46.7950 -64.1150 51° Northeast 546 628 33,000  Level FlightAware
01:53AM 46.9667 -63.7333 51° Northeast 550 633 33,000  Level Moncton Center
01:54AM 47.0667 -63.5667 49° Northeast 550 633 33,000  Level Moncton Center
01:55AM 47.1500 -63.3833 56° Northeast 550 633 33,000  Level Moncton Center
01:56AM 47.2333 -63.1833 58° Northeast 550 633 33,000  Level Moncton Center
01:57AM 47.3167 -63.0167 54° Northeast 550 633 33,000  Level Moncton Center
01:58AM 47.4167 -62.8333 51° Northeast 550 633 33,000  Level Moncton Center
01:59AM 47.5000 -62.6667 53° Northeast 550 633 33,000  Level Moncton Center
02:00AM 47.6000 -62.4667 53° Northeast 550 633 33,000  Level Moncton Center
02:01AM 47.6833 -62.2833 56° Northeast 550 633 33,000  Level Moncton Center
02:02AM 47.7833 -62.1000 51° Northeast 550 633 33,000  Level Moncton Center
02:03AM 47.8667 -61.9333 53° Northeast 550 633 33,000  Level Moncton Center
02:04AM 47.9500 -61.7500 56° Northeast 550 633 33,000  Level Moncton Center
02:05AM 48.0500 -61.5333 55° Northeast 550 633 33,000  Level Moncton Center
02:06AM 48.1500 -61.3667 48° Northeast 550 633 33,000  Level Moncton Center
02:07AM 48.2167 -61.1833 61° Northeast 540 621 33,000  Level Moncton Center
02:08AM 48.3167 -61.0000 51° Northeast 540 621 33,000  Level Moncton Center
02:09AM 48.4000 -60.8167 56° Northeast 540 621 33,000  Level Moncton Center
02:14AM 48.8360 -59.8740 56° Northeast 529 609 33,000  Level FlightAware
02:15AM 48.8860 -59.7600 56° Northeast 532 612 33,000  Level FlightAware
02:16AM 48.9340 -59.6530 56° Northeast 534 615 33,000  Level FlightAware
02:16AM 48.9820 -59.5430 56° Northeast 535 616 33,000  Level FlightAware
02:17AM 49.0300 -59.4340 56° Northeast 535 616 33,000  Level FlightAware
02:17AM 49.0780 -59.3260 56° Northeast 536 617 33,000  Level FlightAware
02:18AM 49.1270 -59.2130 56° Northeast 536 617 33,000  Level FlightAware
02:19AM 49.1730 -59.1080 56° Northeast 537 618 33,000  Level FlightAware
02:19AM 49.2300 -58.9760 56° Northeast 537 618 33,000  Level FlightAware
02:20AM 49.2710 -58.8820 56° Northeast 538 619 33,000  Level FlightAware
02:20AM 49.3200 -58.7710 56° Northeast 539 620 33,000  Level FlightAware
02:21AM 49.3730 -58.6490 56° Northeast 539 620 33,000  Level FlightAware
02:22AM 49.4170 -58.5470 56° Northeast 541 623 33,000  Level FlightAware
02:22AM 49.4600 -58.4360 59° Northeast 541 623 33,000  Level FlightAware
02:23AM 49.5160 -58.2840 60° Northeast 536 617 33,000  Level FlightAware
02:23AM 49.5580 -58.1660 61° Northeast 535 616 33,000  Level FlightAware
02:24AM 49.5980 -58.0510 62° Northeast 535 616 33,000  Level FlightAware
02:25AM 49.6380 -57.9320 63° Northeast 533 613 33,000  Level FlightAware
02:25AM 49.6780 -57.8110 63° Northeast 531 611 33,000  Level FlightAware
02:26AM 49.7230 -57.6770 63° Northeast 530 610 33,000  Level FlightAware
02:26AM 49.7620 -57.5580 63° Northeast 529 609 33,000  Level FlightAware
02:27AM 49.8010 -57.4410 63° Northeast 528 608 33,000  Level FlightAware
02:28AM 49.8450 -57.3080 63° Northeast 528 608 33,000  Level FlightAware
02:28AM 49.8780 -57.2080 63° Northeast 526 605 33,000  Level FlightAware
02:29AM 49.9230 -57.0730 63° Northeast 526 605 33,000 60 Level FlightAware
02:29AM 49.9570 -56.9720 62° Northeast 524 603 33,100  Climbing FlightAware
02:30AM 49.9960 -56.8540 63° Northeast 525 604 33,000 -120 Descending FlightAware
02:30AM 50.0340 -56.7370 63° Northeast 524 603 33,000  Level FlightAware
02:31AM 50.0720 -56.6210 63° Northeast 523 602 33,000  Level FlightAware
02:32AM 50.1110 -56.5040 63° Northeast 523 602 33,000  Level FlightAware
02:32AM 50.1550 -56.3680 63° Northeast 521 600 33,000  Level FlightAware
02:33AM 50.1930 -56.2500 63° Northeast 520 598 33,000  Level FlightAware
02:33AM 50.2250 -56.1490 64° Northeast 520 598 33,000  Level FlightAware
02:34AM 50.2630 -56.0330 63° Northeast 522 601 33,000  Level FlightAware
02:35AM 50.3070 -55.8980 63° Northeast 522 601 33,000  Level FlightAware
02:35AM 50.3500 -55.7640 63° Northeast 525 604 33,000  Level FlightAware
02:36AM 50.3890 -55.6430 63° Northeast 526 605 33,000  Level FlightAware
02:37AM 50.4320 -55.5060 64° Northeast 526 605 33,000  Level FlightAware
02:37AM 50.4690 -55.3880 64° Northeast 526 605 33,000  Level FlightAware
02:38AM 50.5120 -55.2520 64° Northeast 529 609 33,000  Level FlightAware
02:38AM 50.5490 -55.1300 64° Northeast 530 610 33,000  Level FlightAware
02:39AM 50.5820 -55.0260 63° Northeast 530 610 33,000  Level FlightAware
02:39AM 50.6190 -54.9030 65° Northeast 534 615 33,000  Level FlightAware
02:40AM 50.6620 -54.7660 64° Northeast 535 616 33,000  Level FlightAware
02:41AM 50.6900 -54.6700 65° Northeast 536 617 33,000  Level FlightAware
02:41AM 50.7300 -54.5380 64° Northeast 537 618 33,000  Level FlightAware
02:42AM 50.7690 -54.4100 64° Northeast 538 619 33,000  Level FlightAware
02:42AM 50.8060 -54.2900 64° Northeast 539 620 33,000  Level FlightAware
02:43AM 50.8490 -54.1420 65° Northeast 540 621 33,000  Level FlightAware
02:44AM 50.8780 -54.0420 65° Northeast 542 624 33,000 60 Level FlightAware
02:44AM 50.9210 -53.8940 65° Northeast 545 627 33,100 60 Climbing FlightAware
02:45AM 50.9600 -53.7600 65° Northeast 548 631 33,100 -120 Level FlightAware
02:46AM 51.0080 -53.5950 65° Northeast 549 632 33,000 -120 Descending FlightAware
02:46AM 51.0570 -53.4230 66° East 547 629 33,000  Level FlightAware
02:47AM 51.0960 -53.2910 65° Northeast 551 634 33,000  Level FlightAware
02:48AM 51.1320 -53.1650 65° Northeast 551 634 33,000  Level FlightAware
02:48AM 51.1630 -53.0510 67° East 551 634 33,000  Level FlightAware
02:49AM 51.1970 -52.9310 66° East 551 634 33,000  Level FlightAware
02:49AM 51.2270 -52.8230 66° East 551 634 33,000  Level FlightAware
02:50AM 51.2580 -52.7100 66° East 551 634 33,000  Level FlightAware
02:51AM 51.2930 -52.5860 66° East 551 634 33,000  Level FlightAware
02:51AM 51.3240 -52.4720 66° East 551 634 33,000  Level FlightAware
02:52AM 51.3560 -52.3580 66° East 551 634 33,000  Level FlightAware
02:52AM 51.3890 -52.2410 66° East 551 634 33,000  Level FlightAware
02:53AM 51.4200 -52.1270 66° East 551 634 33,000  Level FlightAware
02:54AM 51.4530 -52.0090 66° East 551 634 33,000  Level FlightAware
02:54AM 51.4940 -51.8630 66° East 551 634 33,000  Level FlightAware
02:55AM 51.5270 -51.7420 66° East 551 634 33,000  Level FlightAware
02:56AM 51.5590 -51.6270 66° East 551 634 33,000  Level FlightAware
02:56AM 51.5920 -51.5060 66° East 551 634 33,000  Level FlightAware
02:57AM 51.6240 -51.3920 66° East 551 634 33,000  Level FlightAware
02:58AM 51.7667 -50.7667 66° East 580 667 33,000  Level Gander Center
02:58AM 51.8333 -50.6000 57° Northeast 580 667 33,000  Level Gander Center
02:59AM 51.8833 -50.3667 71° East 570 656 33,000  Level Gander Center
03:02AM 52.0060 -49.9753 68° East  Level FlightAware Approximate
03:03AM 52.0000 -50.0000 68° East 584 672 33,000  Level ETMS Enhanced Traffic Management System
03:09AM 52.4775 -48.0262 69° East 584 672 33,000  Level FlightAware Transoceanic
03:10AM 52.5349 -47.7765 69° East 584 672 33,000  Level FlightAware Transoceanic
03:11AM 52.5917 -47.5262 70° East 584 672 33,000  Level FlightAware Transoceanic
03:12AM 52.6480 -47.2752 70° East 584 672 33,000  Level FlightAware Transoceanic
03:13AM 52.7038 -47.0235 70° East 584 672 33,000  Level FlightAware Transoceanic
03:14AM 52.7590 -46.7713 70° East 584 672 33,000  Level FlightAware Transoceanic
03:15AM 52.8137 -46.5184 70° East 584 672 33,000  Level FlightAware Transoceanic
03:16AM 52.8679 -46.2648 71° East 584 672 33,000  Level FlightAware Transoceanic
03:17AM 52.9215 -46.0106 71° East 584 672 33,000  Level FlightAware Transoceanic
03:18AM 52.9746 -45.7558 71° East 584 672 33,000  Level FlightAware Transoceanic
03:19AM 53.0271 -45.5004 71° East 584 672 33,000  Level FlightAware Transoceanic
03:20AM 53.0791 -45.2444 71° East 584 672 33,000  Level FlightAware Transoceanic
03:21AM 53.1305 -44.9877 72° East 584 672 33,000  Level FlightAware Transoceanic
03:22AM 53.1814 -44.7304 72° East 584 672 33,000  Level FlightAware Transoceanic
03:23AM 53.2317 -44.4725 72° East 584 672 33,000  Level FlightAware Transoceanic
03:24AM 53.2815 -44.2141 72° East 584 672 33,000  Level FlightAware Transoceanic
03:25AM 53.3307 -43.9550 72° East 584 672 33,000  Level FlightAware Transoceanic
03:26AM 53.3793 -43.6953 73° East 584 672 33,000  Level FlightAware Transoceanic
03:27AM 53.4274 -43.4350 73° East 584 672 33,000  Level FlightAware Transoceanic
03:28AM 53.4749 -43.1742 73° East 584 672 33,000  Level FlightAware Transoceanic
03:29AM 53.5219 -42.9127 73° East 584 672 33,000  Level FlightAware Transoceanic
03:30AM 53.5682 -42.6507 74° East 584 672 33,000  Level FlightAware Transoceanic
03:31AM 53.6140 -42.3881 74° East 584 672 33,000  Level FlightAware Transoceanic
03:32AM 53.6592 -42.1250 74° East 584 672 33,000  Level FlightAware Transoceanic
03:33AM 53.7039 -41.8613 74° East 584 672 33,000  Level FlightAware Transoceanic
03:34AM 53.7479 -41.5970 74° East 584 672 33,000  Level FlightAware Transoceanic
03:35AM 53.7914 -41.3322 75° East 584 672 33,000  Level FlightAware Transoceanic
03:36AM 53.8343 -41.0668 75° East 584 672 33,000  Level FlightAware Transoceanic
03:37AM 53.8766 -40.8009 75° East 584 672 33,000  Level FlightAware Transoceanic
03:38AM 53.9183 -40.5345 75° East 584 672 33,000  Level FlightAware Transoceanic
03:39AM 53.9595 -40.2675 75° East 584 672 33,000  Level FlightAware Transoceanic
03:40AM 53.9960 -40.0268 75° East  Level FlightAware Approximate
03:41AM 54.0320 -39.7857 76° East  Level FlightAware Approximate
03:42AM 54.0270 -39.8122 76° East  Level FlightAware Approximate
03:43AM 54.0613 -39.5702 76° East  Level FlightAware Approximate
03:43AM 54.0000 -40.0000 76° East 557 641 33,000  Level ETMS Enhanced Traffic Management System
03:44AM 54.0951 -39.3278 77° East  Level FlightAware Approximate
03:45AM 54.1284 -39.0850 77° East  Level FlightAware Approximate
03:46AM 54.1613 -38.8418 77° East  Level FlightAware Approximate
03:47AM 54.1936 -38.5983 77° East  Level FlightAware Approximate
03:48AM 54.2254 -38.3544 77° East  Level FlightAware Approximate
03:49AM 54.3426 -37.4187 78° East 557 641 33,000  Level FlightAware Transoceanic
03:50AM 54.3738 -37.1583 78° East 557 641 33,000  Level FlightAware Transoceanic
03:51AM 54.4045 -36.8975 79° East 557 641 33,000  Level FlightAware Transoceanic
03:52AM 54.4346 -36.6363 79° East 557 641 33,000  Level FlightAware Transoceanic
03:53AM 54.4641 -36.3747 79° East 557 641 33,000  Level FlightAware Transoceanic
03:54AM 54.4930 -36.1128 79° East 557 641 33,000  Level FlightAware Transoceanic
03:55AM 54.5214 -35.8504 80° East 557 641 33,000  Level FlightAware Transoceanic
03:56AM 54.5493 -35.5877 80° East 557 641 33,000  Level FlightAware Transoceanic
03:57AM 54.5765 -35.3247 80° East 557 641 33,000  Level FlightAware Transoceanic
03:58AM 54.6032 -35.0613 80° East 557 641 33,000  Level FlightAware Transoceanic
03:59AM 54.6293 -34.7976 80° East 557 641 33,000  Level FlightAware Transoceanic
04:00AM 54.6548 -34.5335 81° East 557 641 33,000  Level FlightAware Transoceanic
04:01AM 54.6798 -34.2691 81° East 557 641 33,000  Level FlightAware Transoceanic
04:02AM 54.7042 -34.0044 81° East 557 641 33,000  Level FlightAware Transoceanic
04:03AM 54.7280 -33.7394 81° East 557 641 33,000  Level FlightAware Transoceanic
04:04AM 54.7512 -33.4741 81° East 557 641 33,000  Level FlightAware Transoceanic
04:05AM 54.7738 -33.2085 82° East 557 641 33,000  Level FlightAware Transoceanic
04:06AM 54.7959 -32.9425 82° East 557 641 33,000  Level FlightAware Transoceanic
04:07AM 54.8174 -32.6763 82° East 557 641 33,000  Level FlightAware Transoceanic
04:08AM 54.8383 -32.4098 82° East 557 641 33,000  Level FlightAware Transoceanic
04:09AM 54.8586 -32.1431 83° East 557 641 33,000  Level FlightAware Transoceanic
04:10AM 54.8783 -31.8760 83° East 557 641 33,000  Level FlightAware Transoceanic
04:11AM 54.8975 -31.6087 83° East 557 641 33,000  Level FlightAware Transoceanic
04:12AM 54.9160 -31.3412 83° East 557 641 33,000  Level FlightAware Transoceanic
04:13AM 54.9340 -31.0734 83° East 557 641 33,000  Level FlightAware Transoceanic
04:14AM 54.9514 -30.8054 84° East 557 641 33,000  Level FlightAware Transoceanic
04:15AM 54.9682 -30.5371 84° East 557 641 33,000  Level FlightAware Transoceanic
04:16AM 54.9844 -30.2687 84° East 557 641 33,000  Level FlightAware Transoceanic
04:17AM 54.9990 -30.0174 84° East  Level FlightAware Approximate
04:18AM 55.0131 -29.7659 84° East  Level FlightAware Approximate
04:19AM 55.0087 -29.7828 86° East  Level FlightAware Approximate
04:20AM 55.0184 -29.5307 86° East  Level FlightAware Approximate
04:20AM 55.0000 -30.0000 86° East 542 624 33,000  Level ETMS Enhanced Traffic Management System
04:21AM 55.0275 -29.2784 86° East  Level FlightAware Approximate
04:22AM 55.0361 -29.0256 86° East  Level FlightAware Approximate
04:23AM 55.0442 -28.7726 87° East  Level FlightAware Approximate
04:24AM 55.0518 -28.5195 87° East  Level FlightAware Approximate
04:25AM 55.0588 -28.2663 87° East  Level FlightAware Approximate
04:26AM 55.0682 -27.8980 88° East 542 624 33,000  Level FlightAware Transoceanic
04:27AM 55.0741 -27.6348 88° East 542 624 33,000  Level FlightAware Transoceanic
04:28AM 55.0795 -27.3716 88° East 542 624 33,000  Level FlightAware Transoceanic
04:29AM 55.0844 -27.1082 88° East 542 624 33,000  Level FlightAware Transoceanic
04:30AM 55.0886 -26.8448 88° East 542 624 33,000  Level FlightAware Transoceanic
04:31AM 55.0923 -26.5814 89° East 542 624 33,000  Level FlightAware Transoceanic
04:32AM 55.0955 -26.3179 89° East 542 624 33,000  Level FlightAware Transoceanic
04:33AM 55.0980 -26.0543 89° East 542 624 33,000  Level FlightAware Transoceanic
04:34AM 55.1000 -25.7908 89° East 542 624 33,000  Level FlightAware Transoceanic
04:35AM 55.1014 -25.5272 90° East 542 624 33,000  Level FlightAware Transoceanic
04:36AM 55.1023 -25.2636 90° East 542 624 33,000  Level FlightAware Transoceanic
04:37AM 55.1026 -25.0000 90° East 542 624 33,000  Level FlightAware Transoceanic
04:38AM 55.1023 -24.7364 90° East 542 624 33,000  Level FlightAware Transoceanic
04:39AM 55.1014 -24.4728 90° East 542 624 33,000  Level FlightAware Transoceanic
04:40AM 55.1000 -24.2092 91° East 542 624 33,000  Level FlightAware Transoceanic
04:41AM 55.0980 -23.9457 91° East 542 624 33,000  Level FlightAware Transoceanic
04:42AM 55.0955 -23.6821 91° East 542 624 33,000  Level FlightAware Transoceanic
04:43AM 55.0923 -23.4186 91° East 542 624 33,000  Level FlightAware Transoceanic
04:44AM 55.0886 -23.1552 92° East 542 624 33,000  Level FlightAware Transoceanic
04:45AM 55.0844 -22.8918 92° East 542 624 33,000  Level FlightAware Transoceanic
04:46AM 55.0795 -22.6284 92° East 542 624 33,000  Level FlightAware Transoceanic
04:47AM 55.0741 -22.3652 92° East 542 624 33,000  Level FlightAware Transoceanic
04:48AM 55.0682 -22.1020 92° East 542 624 33,000  Level FlightAware Transoceanic
04:49AM 55.0616 -21.8389 93° East 542 624 33,000  Level FlightAware Transoceanic
04:50AM 55.0545 -21.5758 93° East 542 624 33,000  Level FlightAware Transoceanic
04:51AM 55.0468 -21.3129 93° East 542 624 33,000  Level FlightAware Transoceanic
04:52AM 55.0386 -21.0501 93° East 542 624 33,000  Level FlightAware Transoceanic
04:53AM 55.0298 -20.7874 93° East 542 624 33,000  Level FlightAware Transoceanic
04:54AM 55.0204 -20.5248 94° East 542 624 33,000  Level FlightAware Transoceanic
04:55AM 55.0105 -20.2623 94° East 542 624 33,000  Level FlightAware Transoceanic
04:56AM 55.0004 -20.0098 94° East  Level FlightAware Approximate
04:57AM 54.9898 -19.7574 94° East  Level FlightAware Approximate
04:58AM 54.9689 -19.7730 103° East  Level FlightAware Approximate
04:59AM 54.9347 -19.5273 104° East  Level FlightAware Approximate
05:00AM 54.9000 -19.2820 104° East  Level FlightAware Approximate
05:01AM 54.8648 -19.0372 104° East  Level FlightAware Approximate
05:02AM 54.8291 -18.7928 104° East  Level FlightAware Approximate
05:03AM 54.7930 -18.5488 104° East  Level FlightAware Approximate
05:04AM 54.7563 -18.3053 105° East  Level FlightAware Approximate
05:05AM 54.7192 -18.0622 105° East  Level FlightAware Approximate
05:06AM 54.6815 -17.8195 105° East  Level FlightAware Approximate
05:07AM 54.6434 -17.5773 105° East  Level FlightAware Approximate
05:08AM 54.6048 -17.3356 105° East  Level FlightAware Approximate
05:09AM 54.5658 -17.0943 105° East  Level FlightAware Approximate
05:10AM 54.5273 -16.8529 105° East  Level FlightAware Approximate
05:11AM 54.4884 -16.6120 105° East  Level FlightAware Approximate
05:12AM 54.4490 -16.3716 106° East  Level FlightAware Approximate
05:13AM 54.4091 -16.1316 106° East  Level FlightAware Approximate
05:14AM 54.3688 -15.8921 106° East  Level FlightAware Approximate
05:15AM 54.3280 -15.6531 106° East  Level FlightAware Approximate
05:16AM 54.2867 -15.4145 106° East  Level FlightAware Approximate
05:17AM 54.2449 -15.1764 107° East  Level FlightAware Approximate
05:18AM 54.2027 -14.9388 107° East  Level FlightAware Approximate
05:19AM 54.1600 -14.7017 107° East  Level FlightAware Approximate
05:20AM 54.1169 -14.4651 107° East  Level FlightAware Approximate
05:20AM 54.7780 -13.7470 109° East 535 616 33,500  Level FlightAware
05:20AM 54.7470 -13.6310 115° Southeast 537 618 34,000 900 Climbing FlightAware
05:21AM 54.0726 -14.2294 109° East  Level FlightAware Approximate
05:21AM 54.7060 -13.4790 115° Southeast 540 621 34,600  Level FlightAware
05:22AM 54.6680 -13.3390 115° Southeast 541 623 35,100 300 Climbing FlightAware
05:22AM 54.6300 -13.2010 115° Southeast 540 621 35,000 60 Descending FlightAware
05:23AM 54.5920 -13.0630 115° Southeast 541 623 35,200 660 Climbing FlightAware
05:23AM 54.5570 -12.9340 115° Southeast 543 625 35,800 1,020 Climbing FlightAware
05:24AM 54.5160 -12.7930 117° Southeast 540 621 36,400 900 Climbing FlightAware
05:25AM 54.4730 -12.6510 117° Southeast 436 502 37,000 420 Climbing FlightAware
05:25AM 54.4270 -12.4920 116° Southeast 539 620 37,000  Level FlightAware
05:26AM 54.3820 -12.3410 117° Southeast 536 617 37,000  Level FlightAware
05:27AM 54.3250 -12.1450 116° Southeast 534 615 37,000  Level FlightAware
05:27AM 54.2870 -12.0140 116° Southeast 530 610 37,000  Level FlightAware
05:28AM 54.2530 -11.8990 117° Southeast 530 610 37,000  Level FlightAware
05:29AM 54.2090 -11.7490 117° Southeast 530 610 37,000  Level FlightAware
05:29AM 54.1770 -11.6380 116° Southeast 529 609 37,000  Level FlightAware
05:30AM 54.1330 -11.4870 116° Southeast 529 609 37,000  Level FlightAware
05:30AM 54.0940 -11.3550 117° Southeast 530 610 37,000  Level FlightAware
05:31AM 54.0610 -11.2430 117° Southeast 530 610 37,000  Level FlightAware
05:31AM 54.0230 -11.1120 116° Southeast 534 615 37,000  Level FlightAware
05:32AM 53.9790 -10.9610 116° Southeast 534 615 37,000  Level FlightAware
05:33AM 53.9440 -10.8470 118° Southeast 533 613 37,000  Level FlightAware
05:33AM 53.9000 -10.7010 117° Southeast 533 613 37,000  Level FlightAware
05:34AM 53.8670 -10.5890 117° Southeast 532 612 37,000  Level FlightAware
05:34AM 53.8280 -10.4580 117° Southeast 527 606 37,000  Level FlightAware
05:35AM 53.7890 -10.3280 117° Southeast 527 606 37,000  Level FlightAware
05:36AM 53.7510 -10.2000 117° Southeast 530 610 37,000  Level FlightAware
05:36AM 53.7120 -10.0680 116° Southeast 531 611 37,000  Level FlightAware
05:37AM 53.6670 -9.9240 118° Southeast 532 612 37,000  Level FlightAware
05:37AM 53.6320 -9.8110 118° Southeast 528 608 37,000  Level FlightAware
05:38AM 53.5920 -9.6850 118° Southeast 528 608 37,000  Level FlightAware
05:39AM 53.5450 -9.5370 118° Southeast 528 608 37,000  Level FlightAware
05:39AM 53.5060 -9.4140 118° Southeast 527 606 37,000  Level FlightAware
05:40AM 53.4710 -9.3040 118° Southeast 527 606 37,000  Level FlightAware
05:40AM 53.4240 -9.1600 119° Southeast 527 606 37,000  Level FlightAware
05:41AM 53.3949 -8.9859 119° Southeast 496 571 37,000  Level FlightAware UK
05:41AM 53.3830 -9.0320 119° Southeast 533 613 37,000  Level FlightAware
05:41AM 53.3595 -8.8776 119° Southeast 496 571 37,000  Level FlightAware UK
05:41AM 53.3480 -8.9260 119° Southeast 532 612 37,000  Level FlightAware
05:42AM 53.3238 -8.7692 119° Southeast 496 571 37,000  Level FlightAware UK
05:42AM 53.2990 -8.7780 119° Southeast 532 612 37,000  Level FlightAware
05:43AM 53.2650 -8.6720 118° Southeast 533 613 37,000  Level FlightAware
05:43AM 53.2220 -8.5460 120° Southeast 533 613 37,000  Level FlightAware
05:44AM 53.1810 -8.4210 119° Southeast 532 612 37,000  Level FlightAware
05:44AM 53.1380 -8.2960 119° Southeast 528 608 37,000  Level FlightAware
05:44AM 53.1439 -8.2306 119° Southeast 498 573 37,000  Level FlightAware UK
05:45AM 53.1069 -8.1245 119° Southeast 496 571 37,000  Level FlightAware UK
05:45AM 53.0940 -8.1680 119° Southeast 526 605 37,000  Level FlightAware
05:46AM 53.0440 -8.0250 120° Southeast 526 605 37,000  Level FlightAware
05:46AM 53.0080 -7.9210 120° Southeast 526 605 37,000  Level FlightAware
05:47AM 52.9650 -7.7970 120° Southeast 526 605 37,000  Level FlightAware
05:47AM 52.9230 -7.6760 120° Southeast 526 605 37,000  Level FlightAware
05:48AM 52.8800 -7.5500 120° Southeast 530 610 37,000  Level FlightAware
05:48AM 52.8872 -7.4918 120° Southeast 494 568 37,000  Level FlightAware UK
05:48AM 52.8512 -7.3860 120° Southeast 494 568 37,000  Level FlightAware UK
05:48AM 52.8390 -7.4290 120° Southeast 531 611 37,000  Level FlightAware
05:49AM 52.7960 -7.3030 119° Southeast 530 610 37,000  Level FlightAware
05:50AM 52.7540 -7.1830 120° Southeast 527 606 37,000  Level FlightAware
05:50AM 52.7130 -7.0660 120° Southeast 525 604 37,000  Level FlightAware
05:51AM 52.6660 -6.9300 120° Southeast 523 602 37,000  Level FlightAware
05:51AM 52.6260 -6.8190 120° Southeast 522 601 37,000  Level FlightAware
05:51AM 52.6330 -6.7601 120° Southeast 488 562 37,000  Level FlightAware UK
05:52AM 52.5965 -6.6578 120° Southeast 488 562 37,000  Level FlightAware UK
05:52AM 52.5810 -6.6890 120° Southeast 521 600 37,000  Level FlightAware
05:52AM 52.5410 -6.5800 121° Southeast 521 600 37,000  Level FlightAware
05:53AM 52.4970 -6.4550 120° Southeast 523 602 37,000  Level FlightAware
05:54AM 52.4540 -6.3370 121° Southeast 525 604 37,000  Level FlightAware
05:54AM 52.4080 -6.2100 121° Southeast 525 604 37,000  Level FlightAware
05:55AM 52.3670 -6.0990 121° Southeast 527 606 37,000  Level FlightAware
05:55AM 52.3220 -5.9760 121° Southeast 526 605 37,000  Level FlightAware
05:56AM 52.2790 -5.8610 121° Southeast 525 604 37,000  Level FlightAware
05:57AM 52.2523 -5.6938 121° Southeast 494 568 37,000  Level FlightAware UK
05:57AM 52.2400 -5.7360 121° Southeast 519 597 37,000  Level FlightAware
05:57AM 52.2266 -5.5846 121° Southeast 492 566 37,000 120 Level FlightAware UK
05:57AM 52.2060 -5.5990 121° Southeast 525 604 37,100  Climbing FlightAware
05:58AM 52.1550 -5.4870 127° Southeast 528 608 37,000 -120 Descending FlightAware
05:58AM 52.1100 -5.3850 126° Southeast 527 606 37,000  Level FlightAware
05:59AM 52.0590 -5.2630 124° Southeast 526 605 37,000  Level FlightAware
06:00AM 52.0140 -5.1500 123° Southeast 526 605 37,000  Level FlightAware
06:00AM 51.9760 -5.0140 114° Southeast 516 594 37,000  Level FlightAware
06:01AM 51.9600 -4.8930 102° East 512 589 37,000  Level FlightAware
06:01AM 51.9460 -4.7670 100° East 511 588 37,000  Level FlightAware
06:02AM 51.9320 -4.6400 100° East 511 588 37,000  Level FlightAware
06:02AM 51.9150 -4.4990 101° East 511 588 37,000  Level FlightAware
06:03AM 51.9132 -4.3335 101° East 496 571 37,000  Level FlightAware UK
06:03AM 51.9000 -4.3690 101° East 510 587 37,000  Level FlightAware
06:04AM 51.8968 -4.1987 101° East 498 573 37,000  Level FlightAware UK
06:04AM 51.8830 -4.2310 101° East 509 586 37,000  Level FlightAware
06:04AM 51.8680 -4.1030 101° East 506 582 37,000  Level FlightAware
06:04AM 51.8612 -4.0522 102° East 506 582 37,000  Level FlightAware ADS-B
06:05AM 51.8584 -3.8862 102° East 494 568 37,000  Level FlightAware UK
06:05AM 51.8425 -3.9014 102° East 505 581 37,000  Level FlightAware ADS-B
06:06AM 51.8279 -3.7852 101° East 503 579 37,000  Level FlightAware ADS-B
06:06AM 51.8139 -3.6743 101° East 501 577 37,000  Level FlightAware ADS-B
06:07AM 51.7989 -3.5577 102° East 500 575 37,000  Level FlightAware ADS-B
06:07AM 51.7836 -3.4383 102° East 501 577 37,000  Level FlightAware ADS-B
06:08AM 51.7689 -3.3250 102° East 501 577 37,000  Level FlightAware ADS-B
06:08AM 51.7533 -3.2050 102° East 501 577 37,000  Level FlightAware ADS-B
06:09AM 51.7357 -3.0706 102° East 501 577 37,000  Level FlightAware ADS-B
06:09AM 51.7207 -2.9581 102° East 501 577 37,000  Level FlightAware ADS-B
06:10AM 51.7031 -2.8275 102° East 501 577 37,000  Level FlightAware ADS-B
06:10AM 51.6880 -2.7150 102° East 502 578 37,000  Level FlightAware ADS-B
06:11AM 51.6716 -2.5958 102° East 502 578 37,000  Level FlightAware ADS-B
06:12AM 51.6566 -2.4861 102° East 502 578 37,000  Level FlightAware ADS-B
06:12AM 51.6388 -2.3594 103° East 504 580 37,000  Level FlightAware ADS-B
06:13AM 51.6231 -2.2463 103° East 505 581 37,000  Level FlightAware ADS-B
06:13AM 51.6073 -2.1333 103° East 506 582 37,000  Level FlightAware ADS-B
06:14AM 51.5916 -2.0220 103° East 508 585 37,000  Level FlightAware ADS-B
06:14AM 51.5751 -1.9033 103° East 509 586 37,000  Level FlightAware ADS-B
06:15AM 51.5600 -1.7736 101° East 507 583 37,000  Level FlightAware ADS-B
06:15AM 51.5486 -1.6589 99° East 507 583 37,000  Level FlightAware ADS-B
06:16AM 51.5371 -1.5367 99° East 507 583 37,000  Level FlightAware ADS-B
06:16AM 51.5261 -1.4150 98° East 506 582 37,000  Level FlightAware ADS-B
06:17AM 51.5157 -1.3003 98° East 506 582 37,000  Level FlightAware ADS-B
06:17AM 51.5054 -1.1888 98° East 507 583 37,000  Level FlightAware ADS-B
06:18AM 51.4948 -1.0754 98° East 507 583 37,000  Level FlightAware ADS-B
06:18AM 51.4839 -0.9607 99° East 507 583 37,000  Level FlightAware ADS-B
06:19AM 51.4724 -0.8385 99° East 507 583 37,000  Level FlightAware ADS-B
06:19AM 51.4615 -0.7240 99° East 507 583 37,000  Level FlightAware ADS-B
06:20AM 51.4507 -0.6104 99° East 507 583 37,000  Level FlightAware ADS-B
06:20AM 51.4395 -0.4979 99° East 506 582 37,000  Level FlightAware ADS-B
06:21AM 51.4276 -0.3783 99° East 505 581 37,000  Level FlightAware ADS-B
06:22AM 51.4162 -0.2641 99° East 506 582 37,000  Level FlightAware ADS-B
06:22AM 51.4036 -0.1431 99° East 507 583 37,000  Level FlightAware ADS-B
06:23AM 51.3920 -0.0318 99° East 506 582 37,000  Level FlightAware ADS-B
06:23AM 51.3803 0.0811 99° East 506 582 37,000  Level FlightAware ADS-B
06:24AM 51.3682 0.1938 100° East 505 581 37,000  Level FlightAware ADS-B
06:24AM 51.3562 0.3073 100° East 505 581 37,000  Level FlightAware ADS-B
06:25AM 51.3404 0.4518 100° East 506 582 37,000  Level FlightAware ADS-B
06:25AM 51.3281 0.5645 100° East 507 583 37,000  Level FlightAware ADS-B
06:26AM 51.3156 0.6755 100° East 507 583 37,000  Level FlightAware ADS-B
06:26AM 51.3021 0.7986 100° East 508 585 37,000  Level FlightAware ADS-B
06:27AM 51.2889 0.9151 100° East 509 586 37,000  Level FlightAware ADS-B
06:27AM 51.2753 1.0344 100° East 509 586 37,000  Level FlightAware ADS-B
06:28AM 51.2725 1.2092 100° East 494 568 37,000  Level FlightAware UK
06:28AM 51.2520 1.2390 100° East 511 588 37,000  Level FlightAware
06:29AM 51.2400 1.3450 100° East 511 588 37,000  Level FlightAware
06:29AM 51.2230 1.4870 101° East 512 589 37,000  Level FlightAware
06:30AM 51.2080 1.6160 100° East 513 590 37,000  Level FlightAware
06:31AM 51.1730 1.7580 111° Southeast 528 608 37,000  Level FlightAware
06:31AM 51.1450 1.8450 111° Southeast 528 608 37,000  Level FlightAware
06:31AM 51.1491 1.9104 111° Southeast 494 568 37,000  Level FlightAware UK
06:32AM 51.1167 2.0159 111° Southeast 494 568 37,000  Level FlightAware UK
06:32AM 51.1030 1.9840 111° Southeast 528 608 37,000  Level FlightAware
06:32AM 51.0670 2.1100 114° Southeast 527 606 37,000  Level FlightAware
06:33AM 51.0330 2.2290 114° Southeast 520 598 37,000 60 Level FlightAware
06:34AM 51.0010 2.3430 114° Southeast 515 593 37,100  Climbing FlightAware
06:34AM 51.0088 2.3967 114° Southeast 496 571 37,000 -180 Descending FlightAware UK
06:34AM 50.9738 2.5198 114° Southeast 494 568 37,000  Level FlightAware UK
06:34AM 50.9630 2.4770 114° Southeast 512 589 37,000  Level FlightAware
06:35AM 50.9383 2.6427 114° Southeast 492 566 37,000  Level FlightAware UK
06:35AM 50.9250 2.6070 114° Southeast 512 589 37,000  Level FlightAware
06:35AM 50.8930 2.7090 116° Southeast 512 589 37,000  Level FlightAware
06:36AM 50.8530 2.8390 116° Southeast 511 588 37,000  Level FlightAware
06:36AM 50.8200 2.9430 117° Southeast 511 588 37,000  Level FlightAware
06:37AM 50.7933 3.1062 117° Southeast 492 566 37,000  Level FlightAware UK
06:37AM 50.7830 3.0620 117° Southeast 511 588 37,000  Level FlightAware
06:38AM 50.7618 3.2075 117° Southeast 490 564 37,000  Level FlightAware UK
06:38AM 50.7440 3.1880 117° Southeast 510 587 37,000  Level FlightAware
06:38AM 50.7050 3.3120 116° Southeast 512 589 37,000  Level FlightAware
06:39AM 50.6740 3.4100 116° Southeast 512 589 37,000  Level FlightAware
06:39AM 50.6330 3.5390 117° Southeast 509 586 37,000  Level FlightAware
06:40AM 50.5970 3.6540 116° Southeast 508 585 37,000  Level FlightAware
06:40AM 50.5650 3.7540 117° Southeast 508 585 37,000  Level FlightAware
06:41AM 50.5335 3.9254 117° Southeast 488 562 37,000  Level FlightAware UK
06:41AM 50.5240 3.8820 117° Southeast 508 585 37,000  Level FlightAware
06:42AM 50.4870 3.9970 117° Southeast 508 585 37,000  Level FlightAware
06:42AM 50.4490 4.1140 117° Southeast 508 585 37,000  Level FlightAware
06:43AM 50.4180 4.2090 117° Southeast 508 585 37,000  Level FlightAware
06:43AM 50.3800 4.3260 117° Southeast 508 585 37,000  Level FlightAware
06:44AM 50.3360 4.4620 117° Southeast 507 583 37,000  Level FlightAware
06:45AM 50.3030 4.5600 117° Southeast 506 582 37,000  Level FlightAware
06:45AM 50.3084 4.6154 117° Southeast 1 1 37,000  Level FlightAware UK
06:45AM 50.2650 4.6770 117° Southeast 505 581 37,000  Level FlightAware
06:45AM 50.2683 4.7302 117° Southeast 1 1 37,000  Level FlightAware UK
06:46AM 50.2240 4.7990 118° Southeast 504 580 37,000  Level FlightAware
06:46AM 50.1910 4.8990 117° Southeast 504 580 37,000  Level FlightAware
06:47AM 50.1510 5.0170 118° Southeast 505 581 37,000  Level FlightAware
06:48AM 50.1140 5.1270 118° Southeast 505 581 37,000  Level FlightAware
06:48AM 50.0780 5.2350 117° Southeast 505 581 37,000  Level FlightAware
06:49AM 50.0390 5.3480 118° Southeast 504 580 37,000  Level FlightAware
06:49AM 49.9960 5.4730 118° Southeast 503 579 37,000  Level FlightAware
06:50AM 49.9570 5.5880 118° Southeast 504 580 37,000  Level FlightAware
06:50AM 49.9200 5.6960 118° Southeast 504 580 37,000  Level FlightAware
06:51AM 49.8810 5.8090 118° Southeast 505 581 37,000  Level FlightAware
06:52AM 49.8470 5.9070 118° Southeast 504 580 37,000  Level FlightAware
06:52AM 49.8040 6.0290 119° Southeast 504 580 37,000  Level FlightAware
06:53AM 49.7650 6.1400 119° Southeast 503 579 37,000  Level FlightAware
06:53AM 49.7260 6.2510 118° Southeast 502 578 37,000  Level FlightAware
06:54AM 49.6860 6.3640 119° Southeast 502 578 37,000  Level FlightAware
06:55AM 49.6500 6.4660 119° Southeast 502 578 37,000  Level FlightAware
06:55AM 49.6140 6.5670 119° Southeast 502 578 37,000  Level FlightAware
06:56AM 49.5760 6.6730 119° Southeast 502 578 37,000  Level FlightAware
06:56AM 49.5310 6.7990 119° Southeast 501 577 37,000  Level FlightAware
06:57AM 49.4900 6.9120 119° Southeast 501 577 37,000  Level FlightAware
06:57AM 49.4540 7.0110 119° Southeast 500 575 37,000  Level FlightAware
06:58AM 49.4110 7.1280 119° Southeast 500 575 37,000  Level FlightAware
06:59AM 49.3770 7.2200 120° Southeast 500 575 37,000  Level FlightAware
06:59AM 49.3330 7.3400 119° Southeast 499 574 37,000  Level FlightAware
07:00AM 49.2930 7.4490 119° Southeast 499 574 37,000  Level FlightAware
07:00AM 49.2510 7.5610 120° Southeast 500 575 37,000  Level FlightAware
07:01AM 49.2060 7.6830 119° Southeast 501 577 37,000  Level FlightAware
07:02AM 49.1660 7.7880 120° Southeast 501 577 37,000  Level FlightAware
07:02AM 49.1250 7.8960 120° Southeast 502 578 37,000  Level FlightAware
07:03AM 49.0890 7.9930 120° Southeast 502 578 37,000  Level FlightAware
07:03AM 49.0480 8.1010 120° Southeast 502 578 37,000  Level FlightAware
07:04AM 49.0020 8.2210 120° Southeast 501 577 37,000  Level FlightAware
07:05AM 48.9640 8.3220 120° Southeast 502 578 37,000  Level FlightAware
07:05AM 48.9270 8.4070 124° Southeast 504 580 37,000  Level FlightAware
07:06AM 48.8660 8.5140 131° Southeast 508 585 37,000  Level FlightAware
07:06AM 48.8040 8.6060 136° Southeast 507 583 37,000  Level FlightAware
07:07AM 48.7430 8.6970 135° Southeast 507 583 37,000  Level FlightAware
07:07AM 48.6920 8.7730 135° Southeast 507 583 37,000  Level FlightAware
07:08AM 48.6290 8.8660 136° Southeast 506 582 37,000  Level FlightAware
07:09AM 48.5690 8.9540 136° Southeast 505 581 37,000  Level FlightAware
07:09AM 48.5170 9.0310 136° Southeast 505 581 37,000  Level FlightAware
07:10AM 48.4590 9.1150 136° Southeast 505 581 37,000  Level FlightAware
07:10AM 48.3900 9.2150 136° Southeast 506 582 37,000  Level FlightAware
07:11AM 48.3320 9.3000 136° Southeast 506 582 37,000  Level FlightAware
07:12AM 48.2800 9.3750 136° Southeast 507 583 37,000  Level FlightAware
07:12AM 48.2170 9.4650 136° Southeast 508 585 37,000  Level FlightAware
07:13AM 48.1510 9.5490 140° Southeast 509 586 37,000  Level FlightAware
07:13AM 48.0950 9.6210 139° Southeast 510 587 37,000  Level FlightAware
07:14AM 48.0370 9.6950 140° Southeast 509 586 37,000  Level FlightAware
07:15AM 47.9680 9.7840 139° Southeast 508 585 37,000  Level FlightAware
07:15AM 47.9100 9.8590 139° Southeast 508 585 37,000  Level FlightAware
07:16AM 47.8470 9.9390 140° Southeast 508 585 37,000  Level FlightAware
07:16AM 47.7720 10.0260 142° Southeast 508 585 37,000  Level FlightAware
07:17AM 47.6960 10.1110 143° Southeast 509 586 37,000  Level FlightAware
07:18AM 47.6300 10.1850 143° Southeast 510 587 37,000  Level FlightAware
07:18AM 47.5690 10.2520 143° Southeast 511 588 37,000  Level FlightAware
07:19AM 47.4990 10.3280 144° Southeast 510 587 37,000  Level FlightAware
07:19AM 47.4390 10.3930 144° Southeast 509 586 37,000  Level FlightAware
07:20AM 47.3660 10.4620 147° Southeast 511 588 37,000  Level FlightAware
07:20AM 47.2940 10.5200 151° Southeast 513 590 37,000  Level FlightAware
07:21AM 47.2150 10.5830 152° Southeast 513 590 37,000  Level FlightAware
07:22AM 47.1450 10.6310 155° Southeast 515 593 37,000  Level FlightAware
07:22AM 47.0720 10.6720 159° South 517 595 37,000  Level FlightAware
07:23AM 46.9870 10.7190 159° South 517 595 37,000  Level FlightAware
07:23AM 46.9200 10.7730 151° Southeast 512 589 37,000  Level FlightAware
07:24AM 46.8650 10.8530 135° Southeast 509 586 37,000  Level FlightAware
07:24AM 46.8120 10.9330 134° Southeast 509 586 37,000  Level FlightAware
07:25AM 46.7550 11.0280 131° Southeast 509 586 37,000  Level FlightAware
07:26AM 46.6950 11.1280 131° Southeast 509 586 37,000  Level FlightAware
07:26AM 46.6370 11.2210 132° Southeast 511 588 37,000  Level FlightAware
07:27AM 46.5740 11.3210 132° Southeast 511 588 37,000  Level FlightAware
07:27AM 46.5220 11.4040 132° Southeast 511 588 37,000  Level FlightAware
07:28AM 46.4650 11.4940 133° Southeast 512 589 37,000  Level FlightAware
07:29AM 46.4110 11.5780 133° Southeast 513 590 37,000  Level FlightAware
07:29AM 46.3570 11.6640 132° Southeast 516 594 37,000  Level FlightAware
07:30AM 46.2870 11.7740 133° Southeast 517 595 37,000  Level FlightAware
07:31AM 46.2250 11.8700 133° Southeast 516 594 37,000  Level FlightAware
07:31AM 46.1720 11.9520 133° Southeast 517 595 37,000  Level FlightAware
07:32AM 46.1110 12.0470 133° Southeast 517 595 37,000  Level FlightAware
07:32AM 46.0580 12.1310 132° Southeast 519 597 37,000  Level FlightAware
07:33AM 46.0080 12.2070 133° Southeast 520 598 37,000  Level FlightAware
07:33AM 45.9520 12.2940 133° Southeast 520 598 37,000  Level FlightAware
07:34AM 45.8860 12.3940 133° Southeast 522 601 37,000  Level FlightAware
07:35AM 45.8280 12.4830 133° Southeast 522 601 37,000  Level FlightAware
07:35AM 45.7620 12.5830 133° Southeast 522 601 37,000  Level FlightAware
07:36AM 45.6880 12.6960 133° Southeast 522 601 37,000  Level FlightAware
07:37AM 45.6280 12.7850 134° Southeast 517 595 37,000  Level FlightAware
07:37AM 45.5800 12.8590 133° Southeast 517 595 37,000  Level FlightAware
07:38AM 45.5120 12.9600 134° Southeast 517 595 37,000  Level FlightAware
07:38AM 45.4620 13.0340 134° Southeast 519 597 37,000  Level FlightAware
07:39AM 45.4060 13.1170 134° Southeast 520 598 37,000  Level FlightAware
07:39AM 45.3450 13.2080 134° Southeast 522 601 37,000  Level FlightAware
07:40AM 45.2900 13.2910 133° Southeast 524 603 37,000  Level FlightAware
07:41AM 45.2350 13.3910 128° Southeast 536 617 37,000  Level FlightAware
07:41AM 45.1810 13.4950 126° Southeast 535 616 37,000  Level FlightAware
07:42AM 45.1260 13.6070 125° Southeast 542 624 37,000  Level FlightAware
07:42AM 45.0810 13.6970 125° Southeast 538 619 37,000  Level FlightAware
07:43AM 45.0220 13.8120 126° Southeast 544 626 37,000  Level FlightAware
07:44AM 44.9760 13.8990 127° Southeast 546 628 37,000  Level FlightAware
07:44AM 44.9300 13.9880 126° Southeast 543 625 37,000  Level FlightAware
07:45AM 44.8770 14.0880 127° Southeast 544 626 37,000  Level FlightAware
07:45AM 44.8080 14.2180 127° Southeast 549 632 37,000  Level FlightAware
07:46AM 44.7530 14.3220 127° Southeast 550 633 37,000 60 Level FlightAware
07:47AM 44.7060 14.4320 121° Southeast 555 639 37,100  Climbing FlightAware
07:47AM 44.6590 14.5430 121° Southeast 551 634 37,000 -120 Descending FlightAware
07:48AM 44.6140 14.6490 121° Southeast 549 632 37,000  Level FlightAware
07:48AM 44.5710 14.7490 121° Southeast 547 629 37,000  Level FlightAware
07:49AM 44.5260 14.8530 121° Southeast 547 629 37,000  Level FlightAware
07:50AM 44.4690 14.9860 121° Southeast 538 619 37,000  Level FlightAware
07:50AM 44.4230 15.0930 121° Southeast 537 618 37,000  Level FlightAware
07:51AM 44.3560 15.2490 121° Southeast 534 615 37,000  Level FlightAware
07:52AM 44.3200 15.3310 122° Southeast 533 613 37,000  Level FlightAware
07:52AM 44.2740 15.4390 121° Southeast 531 611 37,000  Level FlightAware
07:53AM 44.2320 15.5350 121° Southeast 530 610 37,000  Level FlightAware
07:53AM 44.1690 15.6610 125° Southeast 517 595 37,000  Level FlightAware
07:54AM 44.1030 15.7670 131° Southeast 518 596 37,000  Level FlightAware
07:55AM 44.0520 15.8490 131° Southeast 520 598 37,000  Level FlightAware
07:55AM 43.9940 15.9450 130° Southeast 514 592 37,000  Level FlightAware
07:56AM 43.9330 16.0470 130° Southeast 514 592 37,000  Level FlightAware
07:56AM 43.8860 16.1240 130° Southeast 516 594 37,000  Level FlightAware
07:57AM 43.8380 16.2040 130° Southeast 522 601 37,000  Level FlightAware
07:58AM 43.7780 16.3030 130° Southeast 524 603 37,000  Level FlightAware
07:58AM 43.7150 16.4070 130° Southeast 526 605 37,000  Level FlightAware
07:59AM 43.6690 16.4810 131° Southeast 526 605 37,000  Level FlightAware
07:59AM 43.6040 16.5860 131° Southeast 521 600 37,000  Level FlightAware
08:00AM 43.5490 16.6740 131° Southeast 522 601 37,000  Level FlightAware
08:01AM 43.5030 16.7470 131° Southeast 522 601 37,000  Level FlightAware
08:01AM 43.4450 16.8380 131° Southeast 523 602 37,000  Level FlightAware
08:02AM 43.3890 16.9280 131° Southeast 524 603 37,000  Level FlightAware
08:02AM 43.3320 17.0170 131° Southeast 525 604 37,000  Level FlightAware
08:03AM 43.2760 17.1060 131° Southeast 526 605 37,000  Level FlightAware
08:04AM 43.2190 17.1960 131° Southeast 526 605 37,000  Level FlightAware
08:04AM 43.1660 17.2790 131° Southeast 527 606 37,000  Level FlightAware
08:05AM 43.1050 17.3730 132° Southeast 526 605 37,000  Level FlightAware
08:05AM 43.0490 17.4610 131° Southeast 526 605 37,000  Level FlightAware
08:06AM 42.9970 17.5420 131° Southeast 532 612 37,000  Level FlightAware
08:06AM 42.9420 17.6270 131° Southeast 532 612 37,000  Level FlightAware
08:07AM 42.8770 17.7280 131° Southeast 532 612 37,000  Level FlightAware
08:08AM 42.8120 17.8290 131° Southeast 531 611 37,000  Level FlightAware
08:08AM 42.7620 17.9050 132° Southeast 530 610 37,000  Level FlightAware
08:09AM 42.7030 17.9970 131° Southeast 528 608 37,000  Level FlightAware
08:09AM 42.6460 18.0840 132° Southeast 527 606 37,000  Level FlightAware
08:10AM 42.5890 18.1690 132° Southeast 526 605 37,000  Level FlightAware
08:10AM 42.5340 18.2510 132° Southeast 523 602 37,000  Level FlightAware
08:11AM 42.4660 18.3430 135° Southeast 522 601 37,000  Level FlightAware
08:12AM 42.4090 18.4190 135° Southeast 521 600 37,000  Level FlightAware
08:12AM 42.3530 18.4950 135° Southeast 522 601 37,000  Level FlightAware
08:13AM 42.2900 18.5790 135° Southeast 524 603 37,000  Level FlightAware
08:13AM 42.2330 18.6560 135° Southeast 525 604 37,000  Level FlightAware
08:14AM 42.1750 18.7330 135° Southeast 527 606 37,000  Level FlightAware
08:15AM 42.1090 18.8210 135° Southeast 528 608 37,000  Level FlightAware
08:15AM 42.0460 18.9060 135° Southeast 531 611 37,000  Level FlightAware
08:16AM 41.9740 19.0010 136° Southeast 535 616 37,000  Level FlightAware
08:17AM 41.8980 19.1010 136° Southeast 538 619 37,000  Level FlightAware
08:17AM 41.8420 19.1750 135° Southeast 540 621 37,000  Level FlightAware
08:18AM 41.7750 19.2640 135° Southeast 543 625 37,000  Level FlightAware
08:18AM 41.7090 19.3490 136° Southeast 545 627 37,000  Level FlightAware
08:19AM 41.6450 19.4330 136° Southeast 545 627 37,000 60 Level FlightAware
08:20AM 41.5860 19.5100 136° Southeast 548 631 37,100 660 Climbing FlightAware
08:20AM 41.5200 19.5940 136° Southeast 544 626 37,800 780 Climbing FlightAware
08:21AM 41.4630 19.6680 136° Southeast 540 621 38,000 120 Climbing FlightAware
08:21AM 41.4010 19.7470 136° Southeast 536 617 38,000  Level FlightAware
08:22AM 41.3330 19.8350 136° Southeast 530 610 38,000  Level FlightAware
08:22AM 41.2790 19.9050 136° Southeast 528 608 38,000  Level FlightAware
08:23AM 41.2140 19.9880 136° Southeast 526 605 38,000  Level FlightAware
08:24AM 41.1500 20.0710 136° Southeast 524 603 38,000  Level FlightAware
08:24AM 41.0880 20.1510 136° Southeast 521 600 38,000  Level FlightAware
08:25AM 41.0320 20.2220 136° Southeast 521 600 38,000  Level FlightAware
08:25AM 40.9690 20.3020 136° Southeast 522 601 38,000  Level FlightAware
08:26AM 40.9050 20.3820 137° Southeast 524 603 38,000  Level FlightAware
08:26AM 40.8490 20.4520 137° Southeast 524 603 38,000  Level FlightAware
08:27AM 40.7870 20.5310 136° Southeast 525 604 38,000  Level FlightAware
08:28AM 40.7270 20.6060 137° Southeast 526 605 38,000  Level FlightAware
08:28AM 40.6610 20.6880 137° Southeast 526 605 38,000  Level FlightAware
08:29AM 40.5980 20.7670 136° Southeast 526 605 38,000  Level FlightAware
08:29AM 40.5330 20.8470 137° Southeast 527 606 38,000  Level FlightAware
08:30AM 40.4780 20.9120 138° Southeast 526 605 38,000  Level FlightAware
08:31AM 40.4110 20.9880 139° Southeast 528 608 38,000  Level FlightAware
08:31AM 40.3430 21.0670 138° Southeast 528 608 38,000  Level FlightAware
08:32AM 40.2840 21.1350 139° Southeast 529 609 38,000  Level FlightAware
08:32AM 40.2180 21.2110 139° Southeast 531 611 38,000  Level FlightAware
08:33AM 40.1480 21.2910 139° Southeast 530 610 38,000  Level FlightAware
08:33AM 40.0890 21.3590 139° Southeast 530 610 38,000  Level FlightAware
08:34AM 40.0260 21.4300 139° Southeast 532 612 38,000  Level FlightAware
08:35AM 39.9560 21.5100 139° Southeast 531 611 38,000  Level FlightAware
08:35AM 39.8930 21.5820 139° Southeast 530 610 38,000  Level FlightAware
08:36AM 39.8270 21.6570 139° Southeast 530 610 38,000  Level FlightAware
08:36AM 39.7580 21.7340 139° Southeast 529 609 38,000  Level FlightAware
08:37AM 39.6990 21.8010 139° Southeast 528 608 38,000  Level FlightAware
08:38AM 39.6190 21.8910 139° Southeast 526 605 38,000  Level FlightAware
08:38AM 39.5550 21.9620 139° Southeast 526 605 38,000  Level FlightAware
08:39AM 39.4850 22.0400 139° Southeast 526 605 38,000  Level FlightAware
08:39AM 39.4270 22.1050 139° Southeast 527 606 38,000  Level FlightAware
08:40AM 39.3630 22.1760 139° Southeast 528 608 38,000  Level FlightAware
08:41AM 39.2960 22.2500 139° Southeast 527 606 38,000  Level FlightAware
08:41AM 39.2290 22.3250 139° Southeast 529 609 38,000  Level FlightAware
08:42AM 39.1720 22.3870 140° Southeast 529 609 38,000  Level FlightAware
08:42AM 39.1020 22.4640 140° Southeast 531 611 38,000  Level FlightAware
08:43AM 39.0370 22.5350 140° Southeast 532 612 38,000  Level FlightAware
08:44AM 38.9770 22.6000 140° Southeast 532 612 38,000  Level FlightAware
08:44AM 38.9040 22.6860 137° Southeast 532 612 38,000  Level FlightAware
08:45AM 38.8380 22.7860 130° Southeast 539 620 38,000  Level FlightAware
08:45AM 38.8020 22.8540 124° Southeast 540 621 38,000  Level FlightAware
08:46AM 38.7300 22.9930 124° Southeast 542 624 38,000 60 Level FlightAware
08:47AM 38.6740 23.1010 124° Southeast 547 629 38,100  Climbing FlightAware
08:47AM 38.6250 23.1950 124° Southeast 548 631 38,000 -120 Descending FlightAware
08:48AM 38.5760 23.2890 124° Southeast 546 628 38,000  Level FlightAware
08:49AM 38.5260 23.3810 125° Southeast 547 629 38,000  Level FlightAware
08:49AM 38.4770 23.4730 124° Southeast 546 628 38,000  Level FlightAware
08:50AM 38.4260 23.5700 124° Southeast 545 627 38,000  Level FlightAware
08:50AM 38.3780 23.6570 125° Southeast 545 627 38,000 -540 Level FlightAware
08:51AM 38.3250 23.7530 125° Southeast 535 616 37,400 -900 Descending FlightAware
08:51AM 38.2750 23.8430 125° Southeast 533 613 37,000 -360 Descending FlightAware
08:52AM 38.2280 23.9290 125° Southeast 531 611 37,000  Level FlightAware
08:53AM 38.1710 24.0320 125° Southeast 532 612 37,000  Level FlightAware
08:53AM 38.1210 24.1240 125° Southeast 532 612 37,000  Level FlightAware
08:54AM 38.0820 24.1940 125° Southeast 534 615 37,000  Level FlightAware
08:54AM 38.0240 24.2990 125° Southeast 533 613 37,000  Level FlightAware
08:55AM 37.9740 24.3910 125° Southeast 533 613 37,000  Level FlightAware
08:56AM 37.9320 24.4660 125° Southeast 532 612 37,000  Level FlightAware
08:56AM 37.8800 24.5580 126° Southeast 533 613 37,000  Level FlightAware
08:57AM 37.8250 24.6570 125° Southeast 534 615 37,000  Level FlightAware
08:57AM 37.7760 24.7430 126° Southeast 534 615 37,000  Level FlightAware
08:58AM 37.7250 24.8330 126° Southeast 534 615 37,000  Level FlightAware
08:58AM 37.6760 24.9210 125° Southeast 537 618 37,000  Level FlightAware
08:59AM 37.6290 25.0030 126° Southeast 538 619 37,000  Level FlightAware
09:00AM 37.5800 25.0900 125° Southeast 538 619 37,000  Level FlightAware
09:00AM 37.5270 25.1820 126° Southeast 541 623 37,000  Level FlightAware
09:01AM 37.4690 25.2820 126° Southeast 543 625 37,000  Level FlightAware
09:01AM 37.4210 25.3650 126° Southeast 544 626 37,000  Level FlightAware
09:02AM 37.3680 25.4560 126° Southeast 545 627 37,000  Level FlightAware
09:03AM 37.3160 25.5450 126° Southeast 546 628 37,000  Level FlightAware
09:03AM 37.2590 25.6410 127° Southeast 548 631 37,000  Level FlightAware
09:04AM 37.2140 25.7180 126° Southeast 549 632 37,000  Level FlightAware
09:04AM 37.1570 25.8160 126° Southeast 551 634 37,000  Level FlightAware
09:05AM 37.1000 25.9140 126° Southeast 553 636 37,000  Level FlightAware
09:05AM 37.0510 25.9970 126° Southeast 556 640 37,000  Level FlightAware
09:06AM 36.9960 26.0900 127° Southeast 558 642 37,000  Level FlightAware
09:07AM 36.9460 26.1750 126° Southeast 560 644 37,000  Level FlightAware
09:07AM 36.8900 26.2710 126° Southeast 560 644 37,000  Level FlightAware
09:08AM 36.8350 26.3640 126° Southeast 560 644 37,000  Level FlightAware
09:08AM 36.7810 26.4540 127° Southeast 559 643 37,000  Level FlightAware
09:09AM 36.7260 26.5470 126° Southeast 559 643 37,000  Level FlightAware
09:10AM 36.6790 26.6270 126° Southeast 559 643 37,000  Level FlightAware
09:10AM 36.6240 26.7180 127° Southeast 557 641 37,000  Level FlightAware
09:11AM 36.5630 26.8190 127° Southeast 556 640 37,000  Level FlightAware
09:12AM 36.4930 26.9360 127° Southeast 552 635 37,000  Level FlightAware
09:12AM 36.4230 27.0530 127° Southeast 551 634 37,000  Level FlightAware
09:13AM 36.3750 27.1360 126° Southeast 551 634 37,000  Level FlightAware
09:14AM 36.3100 27.2390 128° Southeast 546 628 37,000  Level FlightAware
09:14AM 36.2600 27.3230 126° Southeast 546 628 37,000  Level FlightAware
09:15AM 36.2150 27.4010 126° Southeast 546 628 37,000  Level FlightAware
09:15AM 36.1680 27.4800 126° Southeast 546 628 37,000  Level FlightAware
09:16AM 36.0840 27.6090 129° Southeast 539 620 37,000  Level FlightAware
09:17AM 36.0370 27.6870 127° Southeast 539 620 37,000  Level FlightAware
09:17AM 35.9820 27.7770 127° Southeast 538 619 37,000  Level FlightAware
09:18AM 35.9350 27.8540 127° Southeast 538 619 37,000  Level FlightAware
09:18AM 35.8770 27.9470 128° Southeast 538 619 37,000  Level FlightAware
09:19AM 35.8320 28.0200 127° Southeast 539 620 37,000  Level FlightAware
09:20AM 35.7680 28.1210 128° Southeast 538 619 37,000  Level FlightAware
09:20AM 35.7080 28.2180 127° Southeast 537 618 37,000  Level FlightAware
09:21AM 35.6600 28.2950 127° Southeast 537 618 37,000  Level FlightAware
09:21AM 35.5980 28.3940 128° Southeast 535 616 37,000  Level FlightAware
09:22AM 35.5500 28.4680 129° Southeast 534 615 37,000  Level FlightAware
09:23AM 35.4950 28.5550 128° Southeast 533 613 37,000  Level FlightAware
09:23AM 35.4400 28.6400 128° Southeast 532 612 37,000  Level FlightAware
09:24AM 35.3910 28.7170 128° Southeast 531 611 37,000  Level FlightAware
09:24AM 35.3370 28.8020 128° Southeast 530 610 37,000  Level FlightAware
09:25AM 35.2850 28.8840 128° Southeast 530 610 37,000  Level FlightAware
09:26AM 35.2390 28.9570 128° Southeast 530 610 37,000  Level FlightAware
09:26AM 35.1900 29.0330 128° Southeast 530 610 37,000  Level FlightAware
09:27AM 35.1290 29.1270 128° Southeast 530 610 37,000  Level FlightAware
09:28AM 35.0830 29.2000 128° Southeast 530 610 37,000  Level FlightAware
09:28AM 35.0370 29.2720 128° Southeast 530 610 37,000  Level FlightAware
09:29AM 34.9900 29.3460 128° Southeast 530 610 37,000  Level FlightAware
09:29AM 34.8620 29.5400 129° Southeast 525 604 37,000  Level FlightAware
09:30AM 34.8090 29.6210 129° Southeast 525 604 37,000  Level FlightAware
09:31AM 34.7570 29.7000 129° Southeast 526 605 37,000  Level FlightAware
09:31AM 34.7030 29.7840 128° Southeast 526 605 37,000  Level FlightAware
09:32AM 34.6470 29.8680 129° Southeast 525 604 37,000  Level FlightAware
09:32AM 34.6100 29.9250 128° Southeast 525 604 37,000  Level FlightAware
09:33AM 34.5600 30.0180 123° Southeast 530 610 37,000  Level FlightAware
09:33AM 34.5150 30.1130 120° Southeast 531 611 37,000  Level FlightAware
09:34AM 34.4710 30.2050 120° Southeast 531 611 37,000  Level FlightAware
09:35AM 34.4270 30.2960 120° Southeast 530 610 37,000  Level FlightAware
09:35AM 34.3830 30.3870 120° Southeast 529 609 37,000  Level FlightAware
09:36AM 34.3470 30.4630 120° Southeast 528 608 37,000  Level FlightAware
09:36AM 34.2890 30.5830 120° Southeast 528 608 37,000  Level FlightAware
09:37AM 34.2390 30.6860 120° Southeast 526 605 37,000  Level FlightAware
09:38AM 34.2050 30.7540 121° Southeast 527 606 37,000  Level FlightAware
09:38AM 34.1510 30.8650 120° Southeast 530 610 37,000  Level FlightAware
09:39AM 34.1110 30.9470 120° Southeast 529 609 37,000  Level FlightAware
09:39AM 34.0710 31.0280 121° Southeast 528 608 37,000  Level FlightAware
09:40AM 34.0230 31.1270 120° Southeast 524 603 37,000  Level FlightAware
09:41AM 33.9840 31.2060 121° Southeast 525 604 37,000  Level FlightAware
09:41AM 33.9400 31.2970 120° Southeast 525 604 37,000  Level FlightAware
09:42AM 33.8990 31.3790 121° Southeast 525 604 37,000  Level FlightAware
09:42AM 33.8550 31.4690 120° Southeast 525 604 37,000  Level FlightAware
09:43AM 33.8090 31.5610 121° Southeast 525 604 37,000  Level FlightAware
09:44AM 33.7630 31.6540 121° Southeast 529 609 37,000  Level FlightAware
09:44AM 33.7210 31.7390 121° Southeast 529 609 37,000  Level FlightAware
09:45AM 33.6750 31.8320 121° Southeast 531 611 37,000  Level FlightAware
09:45AM 33.6320 31.9170 121° Southeast 531 611 37,000  Level FlightAware
09:46AM 33.5870 32.0080 121° Southeast 530 610 37,000  Level FlightAware
09:46AM 33.5450 32.0920 121° Southeast 529 609 37,000  Level FlightAware
09:47AM 33.4990 32.1840 121° Southeast 529 609 37,000  Level FlightAware
09:48AM 33.4500 32.2810 121° Southeast 528 608 37,000  Level FlightAware
09:48AM 33.3920 32.3950 121° Southeast 526 605 37,000 -420 Level FlightAware
09:49AM 33.3550 32.4680 121° Southeast 523 602 36,500 -1,200 Descending FlightAware
09:50AM 33.3070 32.5620 121° Southeast 524 603 35,700 -1,200 Descending FlightAware
09:50AM 33.2560 32.6630 121° Southeast 515 593 35,000 -960 Descending FlightAware
09:51AM 33.2190 32.7350 122° Southeast 512 589 34,600 -840 Descending FlightAware
09:51AM 33.1710 32.8280 122° Southeast 510 587 34,100 -1,500 Descending FlightAware
09:52AM 33.1300 32.9100 121° Southeast 503 579 32,800 -2,160 Descending FlightAware
09:52AM 33.0890 32.9880 122° Southeast 495 570 31,700 -1,560 Descending FlightAware
09:53AM 33.0420 33.0790 122° Southeast 475 547 30,900 -1,560 Descending FlightAware
09:54AM 33.0070 33.1470 122° Southeast 460 529 29,900 -2,040 Descending FlightAware
09:54AM 32.9630 33.2310 122° Southeast 455 524 28,500 -2,220 Descending FlightAware
09:55AM 32.9160 33.3210 122° Southeast 447 514 26,900 -2,220 Descending FlightAware
09:56AM 32.8840 33.3830 122° Southeast 440 506 25,900 -2,040 Descending FlightAware
09:56AM 32.8440 33.4590 122° Southeast 426 490 24,600 -1,920 Descending FlightAware
09:57AM 32.8090 33.5270 121° Southeast 412 474 23,600 -1,800 Descending FlightAware
09:57AM 32.7730 33.6070 118° Southeast 380 437 22,300 -2,220 Descending FlightAware
09:58AM 32.7670 33.6720 96° East 369 425 20,900 -2,580 Descending FlightAware
09:59AM 32.7610 33.7480 95° East 356 410 19,400 -2,400 Descending FlightAware
09:59AM 32.7570 33.8160 94° East 340 391 18,000 -2,340 Descending FlightAware
10:00AM 32.7530 33.8740 95° East 333 383 16,800 -2,400 Descending FlightAware
10:00AM 32.7440 33.9060 108° East 332 382 16,000 -2,640 Descending FlightAware
10:00AM 32.7340 33.9210 128° Southeast 331 381 15,500 -2,580 Descending FlightAware
10:00AM 32.7160 33.9370 143° Southeast 328 377 14,900 -2,580 Descending FlightAware
10:01AM 32.6720 33.9720 146° Southeast 327 376 13,400 -2,580 Descending FlightAware
10:02AM 32.6270 34.0100 145° Southeast 319 367 11,900 -1,860 Descending FlightAware
10:02AM 32.5830 34.0480 144° Southeast 303 349 11,200 -1,200 Descending FlightAware
10:03AM 32.5500 34.0760 144° Southeast 298 343 10,600 -1,380 Descending FlightAware
10:03AM 32.5140 34.1060 145° Southeast 293 337 9,800 -1,260 Descending FlightAware
10:04AM 32.5020 34.1170 142° Southeast 293 337 9,600 -1,380 Descending FlightAware
10:04AM 32.4850 34.1350 138° Southeast 289 333 9,200 -1,740 Descending FlightAware
10:04AM 32.4660 34.1570 136° Southeast 289 333 8,700 -1,380 Descending FlightAware
10:04AM 32.4460 34.1810 135° Southeast 287 330 8,300 -1,320 Descending FlightAware
10:05AM 32.4300 34.2000 135° Southeast 287 330 7,900 -1,440 Descending FlightAware
10:05AM 32.4080 34.2260 135° Southeast 285 328 7,300 -780 Descending FlightAware
10:06AM 32.3820 34.2560 136° Southeast 285 328 7,200 -1,320 Descending FlightAware
10:06AM 32.3650 34.2770 134° Southeast 286 329 6,300 -1,860 Descending FlightAware
10:06AM 32.3500 34.2940 136° Southeast 289 333 6,100 -300 Descending FlightAware
10:07AM 32.3230 34.3260 135° Southeast 288 331 6,100 -300 Level FlightAware
10:07AM 32.3090 34.3420 136° Southeast 285 328 5,900 -1,200 Descending FlightAware
10:07AM 32.2960 34.3580 134° Southeast 284 327 5,500 -1,200 Descending FlightAware
10:08AM 32.2720 34.3860 135° Southeast 288 331 5,100 -540 Descending FlightAware
10:08AM 32.2530 34.4090 134° Southeast 286 329 5,100  Level FlightAware
10:09AM 32.2260 34.4560 124° Southeast 284 327 5,100 60 Level FlightAware
10:09AM 32.2100 34.4860 122° Southeast 285 328 5,200 60 Climbing FlightAware
10:09AM 32.1950 34.5160 121° Southeast 285 328 5,200 -180 Level FlightAware
10:10AM 32.1810 34.5430 121° Southeast 282 325 5,100 -180 Descending FlightAware
10:10AM 32.1640 34.5750 122° Southeast 266 306 5,100  Level FlightAware
10:10AM 32.1510 34.5990 123° Southeast 266 306 5,100  Level FlightAware
10:11AM 32.1440 34.6110 125° Southeast 264 304 5,100  Level FlightAware
10:11AM 32.1180 34.6600 122° Southeast 254 292 5,100 60 Level FlightAware
10:12AM 32.0970 34.6970 124° Southeast 229 264 5,200 60 Climbing FlightAware
10:12AM 32.0850 34.7180 124° Southeast 222 255 5,200  Level FlightAware
10:12AM 32.0780 34.7290 127° Southeast 224 258 5,200 -480 Level FlightAware
10:13AM 32.0540 34.7560 136° Southeast 222 255 4,900 -600 Descending FlightAware
10:13AM 32.0450 34.7670 134° Southeast 209 241 4,800 -360 Descending FlightAware
10:13AM 32.0300 34.7830 138° Southeast 203 234 4,700 -480 Descending FlightAware
10:14AM 32.0180 34.7970 135° Southeast 204 235 4,500 -1,200 Descending FlightAware
10:14AM 32.0020 34.8150 136° Southeast 210 242 3,900 -1,740 Descending FlightAware
10:14AM 31.9910 34.8310 129° Southeast 217 250 3,300 -1,440 Descending FlightAware
10:15AM 31.9890 34.8510 97° East 193 222 3,100 -720 Descending FlightAware
10:15AM 31.9920 34.8690 79° East 186 214 2,900 -840 Descending FlightAware
10:15AM 31.9960 34.8870 75° East 183 211 2,600 -1,020 Descending FlightAware
10:16AM 32.0010 34.9080 74° East 185 213 2,200 -480 Descending FlightAware
10:16AM 32.0080 34.9300 69° East 185 213 2,200 -1,080 Level FlightAware
10:16AM 32.0230 34.9210 333° Northwest 167 192 1,700 -1,680 Descending FlightAware
10:17AM 32.0360 34.9140 335° Northwest 165 190 1,200 -600 Descending FlightAware
10:17AM 32.0550 34.8820 305° West 165 190 1,000 -300 Descending FlightAware
10:20AM 32.0095 34.8769 125° Southeast  Level Estimated
10:21AM 32.0095 34.8769 125° Southeast  Level Estimated